Airfield :
LOGIN :

Register | Disclaimer

   EN    FR    IT 

 










Legend :    VFR   Marginal VFR   IFR   Intensive IFR   Very Intensive IFR
Visi :
Ceiling :
>= 8 km
>= 3000ft
5 to 8 km
1000 to 3000 ft
1500m to 5 km
500 to 1000 ft
800 to 1500m
200 to 500 ft
< 800m
< 200 ft
Symbols :   Thunderstorms  Fog  Heavy snow  Heavy precipitations  Wind > 20 kt
SIGMETs :     Misc.  Thunderstorms  Icing  Turbulence  Mountain Waves  Volcanic Ashes







- Airport Elevation : 49 ft
- IATA code : GLZ


EHGR - Gilze-Rijen Airbase

CURRENT METAR :
  • 261225Z AUTO 09012KT 010V140 9999 NCD 27/10 Q1020 BLU

EXPIRED METARs :
  • 261155Z AUTO 11011G21KT 080V160 9999 NCD 26/10 Q1020 BLU
  • 261125Z AUTO 12010KT 040V160 9999 NCD 26/11 Q1021 BLU
  • 261055Z AUTO 12011KT 070V150 9999 NCD 25/11 Q1021 BLU
  • 261025Z AUTO 12011KT 060V150 9999 NCD 24/12 Q1021 BLU
  • 260955Z AUTO 12010KT 070V160 9999 NCD 24/12 Q1022 BLU

Expired Forecast.
No reported NOTAMs for that airfield.



MET'MAP, your aeronautical weather chart ! - Copyright ORBIFLY December 2007 - Disclaimer

ORBIFLY MET'MAP TEAM :

Programming & Development : Alexandra Zaïnal
Concept & Development : Baudouin d'Aumeries
Co-Development & Prog : Marc-Olivier Méhu
Technical & hardware support : Manuel Goepfert

Contact : metmap@orbifly.com




SOURCES & CREDITS :

   NOAA